createdAt,value
2023-03-05T00:00:41.593Z,994.87
2023-03-05T00:01:43.356Z,994.86
2023-03-05T00:02:45.125Z,994.84
2023-03-05T00:03:46.846Z,994.88
2023-03-05T00:04:48.512Z,994.86
2023-03-05T00:05:50.197Z,994.85
2023-03-05T00:06:51.940Z,994.86
2023-03-05T00:07:53.652Z,994.86
2023-03-05T00:08:55.378Z,994.87
2023-03-05T00:09:57.123Z,994.84
2023-03-05T00:10:58.836Z,994.84
2023-03-05T00:12:00.567Z,994.87
2023-03-05T00:13:02.251Z,994.84
2023-03-05T00:14:04.080Z,994.86
2023-03-05T00:15:05.775Z,994.84
2023-03-05T00:16:07.579Z,994.85
2023-03-05T00:17:09.210Z,994.84
2023-03-05T00:18:10.934Z,994.87
2023-03-05T00:19:12.668Z,994.81
2023-03-05T00:20:14.424Z,994.83
2023-03-05T00:21:16.123Z,994.8
2023-03-05T00:22:17.916Z,994.74
2023-03-05T00:23:19.604Z,994.71
2023-03-05T00:24:21.367Z,994.79
2023-03-05T00:25:23.111Z,994.81
2023-03-05T00:26:24.841Z,994.8
2023-03-05T00:27:26.560Z,994.8
2023-03-05T00:28:28.255Z,994.82
2023-03-05T00:29:31.681Z,994.83
2023-03-05T00:30:31.748Z,994.74
2023-03-05T00:31:33.592Z,994.78
2023-03-05T00:32:35.298Z,994.73
2023-03-05T00:33:36.932Z,994.77
2023-03-05T00:34:38.750Z,994.72
2023-03-05T00:35:40.489Z,994.7
2023-03-05T00:36:42.140Z,994.69
2023-03-05T00:37:43.871Z,994.69
2023-03-05T00:38:45.615Z,994.73
2023-03-05T00:39:47.393Z,994.65
2023-03-05T00:40:49.080Z,994.68
2023-03-05T00:41:50.802Z,994.72
2023-03-05T00:42:52.733Z,994.65
2023-03-05T00:43:54.292Z,994.74
2023-03-05T00:44:55.987Z,994.68
2023-03-05T00:45:57.784Z,994.71
2023-03-05T00:46:59.473Z,994.67
2023-03-05T00:48:01.349Z,994.65
2023-03-05T00:49:02.978Z,994.69
2023-03-05T00:50:04.724Z,994.68
2023-03-05T00:51:06.430Z,994.67
2023-03-05T00:52:08.338Z,994.69
2023-03-05T00:53:09.885Z,994.7
2023-03-05T00:54:11.656Z,994.67
2023-03-05T00:55:13.380Z,994.67
2023-03-05T00:56:15.096Z,994.6
2023-03-05T00:57:16.837Z,994.6
2023-03-05T00:58:18.565Z,994.63
2023-03-05T00:59:20.312Z,994.59
2023-03-05T01:00:22.030Z,994.59
2023-03-05T01:01:23.877Z,994.52
2023-03-05T01:03:39.815Z,994.56
2023-03-05T01:04:41.552Z,994.58
2023-03-05T01:05:43.441Z,994.56
2023-03-05T01:06:45.021Z,994.54
2023-03-05T01:07:46.750Z,994.56
2023-03-05T01:08:48.478Z,994.56
2023-03-05T01:09:50.232Z,994.51
2023-03-05T01:10:52.147Z,994.53
2023-03-05T01:11:53.695Z,994.5
2023-03-05T01:12:55.439Z,994.52
2023-03-05T01:13:57.148Z,994.5
2023-03-05T01:14:58.884Z,994.47
2023-03-05T01:16:00.659Z,994.49
2023-03-05T01:17:02.347Z,994.49
2023-03-05T01:18:04.069Z,994.46
2023-03-05T01:19:05.810Z,994.41
2023-03-05T01:20:07.546Z,994.4
2023-03-05T01:22:11.100Z,994.43
2023-03-05T01:23:11.527Z,994.43
2023-03-05T01:23:12.772Z,994.39
2023-03-05T01:24:14.478Z,994.37
2023-03-05T01:25:16.211Z,994.46
2023-03-05T01:26:17.963Z,994.39
2023-03-05T01:27:19.691Z,994.37
2023-03-05T01:28:21.425Z,994.37
2023-03-05T01:29:23.189Z,994.33
2023-03-05T01:30:24.874Z,994.32
2023-03-05T01:31:26.691Z,994.32
2023-03-05T01:32:28.425Z,994.3
2023-03-05T01:33:30.097Z,994.33
2023-03-05T01:34:31.840Z,994.25
2023-03-05T01:35:33.597Z,994.3
2023-03-05T01:36:35.274Z,994.3
2023-03-05T01:37:37.004Z,994.31
2023-03-05T01:38:38.744Z,994.25
2023-03-05T01:39:40.483Z,994.32
2023-03-05T01:40:42.251Z,994.26
2023-03-05T01:41:43.971Z,994.25
2023-03-05T01:42:45.802Z,994.27
2023-03-05T01:43:47.474Z,994.22
2023-03-05T01:44:49.166Z,994.19
2023-03-05T01:45:50.959Z,994.23
2023-03-05T01:46:52.631Z,994.2
2023-03-05T01:47:54.359Z,994.17
2023-03-05T01:48:56.101Z,994.15
2023-03-05T01:49:57.808Z,994.23
2023-03-05T01:50:59.565Z,994.18
2023-03-05T01:52:01.316Z,994.16
2023-03-05T01:53:03.015Z,994.21
2023-03-05T01:54:04.971Z,994.15
2023-03-05T01:55:06.504Z,994.11
2023-03-05T01:56:08.208Z,994.13
2023-03-05T01:57:09.978Z,994.12
2023-03-05T01:58:11.682Z,994.11
2023-03-05T01:59:13.408Z,994.07
2023-03-05T02:00:15.144Z,994.12
2023-03-05T02:01:17.084Z,994.08
2023-03-05T02:02:18.633Z,994.08
2023-03-05T02:03:20.352Z,994.06
2023-03-05T02:04:22.306Z,994.08
2023-03-05T02:05:23.818Z,994.02
2023-03-05T02:06:25.566Z,994.08
2023-03-05T02:07:27.303Z,994.05
2023-03-05T02:08:29.020Z,993.98
2023-03-05T02:09:30.756Z,993.96
2023-03-05T02:10:32.483Z,993.97
2023-03-05T02:11:34.228Z,993.97
2023-03-05T02:12:36.004Z,993.99
2023-03-05T02:13:37.683Z,993.93
2023-03-05T02:14:39.432Z,993.95
2023-03-05T02:15:41.170Z,993.87
2023-03-05T02:16:42.956Z,993.93
2023-03-05T02:17:44.612Z,993.93
2023-03-05T02:18:46.356Z,993.91
2023-03-05T02:19:48.091Z,993.88
2023-03-05T02:20:50.853Z,993.85
2023-03-05T02:21:51.562Z,993.8
2023-03-05T02:22:53.318Z,993.82
2023-03-05T02:23:55.030Z,993.73
2023-03-05T02:24:56.755Z,993.78
2023-03-05T02:25:58.490Z,993.79
2023-03-05T02:27:00.233Z,993.71
2023-03-05T02:28:01.975Z,993.76
2023-03-05T02:29:03.684Z,993.73
2023-03-05T02:30:05.424Z,993.74
2023-03-05T02:31:07.173Z,993.68
2023-03-05T02:32:09.065Z,993.7
2023-03-05T02:33:10.646Z,993.7
2023-03-05T02:34:12.375Z,993.64
2023-03-05T02:35:14.108Z,993.61
2023-03-05T02:36:15.890Z,993.66
2023-03-05T02:37:17.573Z,993.66
2023-03-05T02:38:19.350Z,993.62
2023-03-05T02:39:21.027Z,993.66
2023-03-05T02:40:22.779Z,993.67
2023-03-05T02:41:24.507Z,993.64
2023-03-05T02:42:26.239Z,993.67
2023-03-05T02:43:27.972Z,993.6
2023-03-05T02:44:29.707Z,993.65
2023-03-05T02:45:31.468Z,993.61
2023-03-05T02:46:33.194Z,993.61
2023-03-05T02:47:34.957Z,993.61
2023-03-05T02:48:36.649Z,993.58
2023-03-05T02:49:38.387Z,993.57
2023-03-05T02:50:40.122Z,993.61
2023-03-05T02:51:41.847Z,993.62
2023-03-05T02:52:43.591Z,993.58
2023-03-05T02:53:45.344Z,993.55
2023-03-05T02:54:47.039Z,993.55
2023-03-05T02:55:48.763Z,993.52
2023-03-05T02:56:50.535Z,993.51
2023-03-05T02:57:52.232Z,993.56
2023-03-05T02:58:54.029Z,993.54
2023-03-05T02:59:55.826Z,993.51
2023-03-05T03:00:57.505Z,993.48
2023-03-05T03:01:59.202Z,993.44
2023-03-05T03:03:00.967Z,993.54
2023-03-05T03:04:02.661Z,993.4
2023-03-05T03:05:04.403Z,993.47
2023-03-05T03:06:06.129Z,993.45
2023-03-05T03:07:07.905Z,993.44
2023-03-05T03:08:09.606Z,993.52
2023-03-05T03:09:11.336Z,993.5
2023-03-05T03:10:13.087Z,993.42
2023-03-05T03:11:14.804Z,993.4
2023-03-05T03:12:16.658Z,993.45
2023-03-05T03:13:18.299Z,993.44
2023-03-05T03:14:20.005Z,993.44
2023-03-05T03:15:21.729Z,993.47
2023-03-05T03:16:23.566Z,993.4
2023-03-05T03:17:25.200Z,993.36
2023-03-05T03:18:26.921Z,993.43
2023-03-05T03:19:28.670Z,993.45
2023-03-05T03:20:30.386Z,993.4
2023-03-05T03:21:32.149Z,993.4
2023-03-05T03:22:33.865Z,993.41
2023-03-05T03:23:35.601Z,993.38
2023-03-05T03:24:37.368Z,993.35
2023-03-05T03:25:39.052Z,993.36
2023-03-05T03:26:40.830Z,993.38
2023-03-05T03:27:42.518Z,993.38
2023-03-05T03:28:44.324Z,993.32
2023-03-05T03:29:46.047Z,993.38
2023-03-05T03:30:47.819Z,993.37
2023-03-05T03:31:49.497Z,993.35
2023-03-05T03:32:51.226Z,993.37
2023-03-05T03:33:52.944Z,993.28
2023-03-05T03:34:54.701Z,993.36
2023-03-05T03:35:56.473Z,993.31
2023-03-05T03:36:58.147Z,993.28
2023-03-05T03:37:59.883Z,993.31
2023-03-05T03:39:01.629Z,993.26
2023-03-05T03:40:03.365Z,993.26
2023-03-05T03:41:05.116Z,993.23
2023-03-05T03:42:06.837Z,993.19
2023-03-05T03:43:08.550Z,993.24
2023-03-05T03:44:10.276Z,993.26
2023-03-05T03:45:12.013Z,993.22
2023-03-05T03:46:13.882Z,993.22
2023-03-05T03:47:15.647Z,993.2
2023-03-05T03:48:17.209Z,993.17
2023-03-05T03:49:19.177Z,993.19
2023-03-05T03:50:20.679Z,993.17
2023-03-05T03:51:22.445Z,993.15
2023-03-05T03:52:24.222Z,993.15
2023-03-05T03:53:25.877Z,993.13
2023-03-05T03:54:27.614Z,993.14
2023-03-05T03:55:29.338Z,993.1
2023-03-05T03:56:31.114Z,993.13
2023-03-05T03:57:32.802Z,993.14
2023-03-05T03:58:34.545Z,993.12
2023-03-05T03:59:36.285Z,993.11
2023-03-05T04:00:38.056Z,993.09
2023-03-05T04:01:39.755Z,993.04
2023-03-05T04:02:41.527Z,993.06
2023-03-05T04:03:43.209Z,993.05
2023-03-05T04:04:44.952Z,993.1
2023-03-05T04:05:46.705Z,993.09
2023-03-05T04:06:48.423Z,993.09
2023-03-05T04:07:50.165Z,993.08
2023-03-05T04:08:51.891Z,993.06
2023-03-05T04:09:53.643Z,993.09
2023-03-05T04:10:55.359Z,993.05
2023-03-05T04:11:57.087Z,993.08
2023-03-05T04:12:58.818Z,993.07
2023-03-05T04:14:00.785Z,993.02
2023-03-05T04:15:02.297Z,993.05
2023-03-05T04:16:04.119Z,993.05
2023-03-05T04:17:05.753Z,993.05
2023-03-05T04:18:07.511Z,993.01
2023-03-05T04:19:09.228Z,993.02
2023-03-05T04:20:11.320Z,993.06
2023-03-05T04:21:12.708Z,992.99
2023-03-05T04:22:14.427Z,992.99
2023-03-05T04:23:16.147Z,992.98
2023-03-05T04:24:17.879Z,993.01
2023-03-05T04:25:19.639Z,992.95
2023-03-05T04:26:21.358Z,993.03
2023-03-05T04:27:23.092Z,993.03
2023-03-05T04:28:24.804Z,992.99
2023-03-05T04:29:26.539Z,993.02
2023-03-05T04:30:28.308Z,992.99
2023-03-05T04:31:30.132Z,992.95
2023-03-05T04:32:31.825Z,993.01
2023-03-05T04:33:33.481Z,992.94
2023-03-05T04:34:35.253Z,992.98
2023-03-05T04:35:37.018Z,992.98
2023-03-05T04:36:38.684Z,992.94
2023-03-05T04:37:40.398Z,992.96
2023-03-05T04:38:42.178Z,992.92
2023-03-05T04:39:43.880Z,992.9
2023-03-05T04:40:45.615Z,992.97
2023-03-05T04:41:47.345Z,992.94
2023-03-05T04:42:49.074Z,992.99
2023-03-05T04:43:50.818Z,992.95
2023-03-05T04:44:52.552Z,992.94
2023-03-05T04:45:54.300Z,992.97
2023-03-05T04:46:56.128Z,992.98
2023-03-05T04:47:57.766Z,992.96
2023-03-05T04:48:59.492Z,993.02
2023-03-05T04:50:01.228Z,992.97
2023-03-05T04:51:02.957Z,992.92
2023-03-05T04:52:04.706Z,992.89
2023-03-05T04:53:06.421Z,992.92
2023-03-05T04:54:08.142Z,992.9
2023-03-05T04:55:09.911Z,992.83
2023-03-05T04:56:11.661Z,992.97
2023-03-05T04:57:13.348Z,992.88
2023-03-05T04:58:15.077Z,992.91
2023-03-05T04:59:16.823Z,992.81
2023-03-05T05:00:18.542Z,992.91
2023-03-05T05:01:20.352Z,992.9
2023-03-05T05:02:22.050Z,992.89
2023-03-05T05:03:23.761Z,992.83
2023-03-05T05:04:25.496Z,992.89
2023-03-05T05:05:27.275Z,992.89
2023-03-05T05:06:28.962Z,992.83
2023-03-05T05:07:30.724Z,992.91
2023-03-05T05:08:32.420Z,992.89
2023-03-05T05:09:34.183Z,992.88
2023-03-05T05:10:35.921Z,992.89
2023-03-05T05:11:37.634Z,992.88
2023-03-05T05:12:39.375Z,992.8
2023-03-05T05:13:41.094Z,992.8
2023-03-05T05:14:42.820Z,992.82
2023-03-05T05:15:44.560Z,992.85
2023-03-05T05:16:46.344Z,992.87
2023-03-05T05:17:48.079Z,992.85
2023-03-05T05:18:49.772Z,992.85
2023-03-05T05:19:51.497Z,992.83
2023-03-05T05:20:53.237Z,992.75
2023-03-05T05:21:54.987Z,992.73
2023-03-05T05:22:56.715Z,992.73
2023-03-05T05:23:58.456Z,992.73
2023-03-05T05:25:00.202Z,992.76
2023-03-05T05:26:01.929Z,992.7
2023-03-05T05:27:03.640Z,992.78
2023-03-05T05:28:05.368Z,992.79
2023-03-05T05:29:07.095Z,992.73
2023-03-05T05:30:09.015Z,992.75
2023-03-05T05:31:10.630Z,992.68
2023-03-05T05:32:12.406Z,992.75
2023-03-05T05:33:14.033Z,992.74
2023-03-05T05:34:15.815Z,992.71
2023-03-05T05:35:17.696Z,992.72
2023-03-05T05:36:19.324Z,992.74
2023-03-05T05:37:20.975Z,992.73
2023-03-05T05:38:22.720Z,992.72
2023-03-05T05:39:24.458Z,992.7
2023-03-05T05:40:26.185Z,992.73
2023-03-05T05:41:27.930Z,992.7
2023-03-05T05:42:29.651Z,992.65
2023-03-05T05:43:31.385Z,992.67
2023-03-05T05:44:33.130Z,992.6
2023-03-05T05:45:35.038Z,992.63
2023-03-05T05:46:36.636Z,992.61
2023-03-05T05:47:38.326Z,992.66
2023-03-05T05:48:40.061Z,992.62
2023-03-05T05:49:41.816Z,992.64
2023-03-05T05:50:43.525Z,992.6
2023-03-05T05:51:45.291Z,992.62
2023-03-05T05:52:46.993Z,992.61
2023-03-05T05:53:48.764Z,992.64
2023-03-05T05:54:50.444Z,992.67
2023-03-05T05:55:52.189Z,992.6
2023-03-05T05:56:53.935Z,992.67
2023-03-05T05:57:55.651Z,992.64
2023-03-05T05:58:57.403Z,992.66
2023-03-05T05:59:59.104Z,992.61
2023-03-05T06:01:00.827Z,992.66
2023-03-05T06:02:02.777Z,992.66
2023-03-05T06:03:04.361Z,992.6
2023-03-05T06:04:06.045Z,992.63
2023-03-05T06:05:07.792Z,992.57
2023-03-05T06:06:09.509Z,992.6
2023-03-05T06:07:11.267Z,992.6
2023-03-05T06:08:13.039Z,992.64
2023-03-05T06:09:14.733Z,992.64
2023-03-05T06:10:16.454Z,992.63
2023-03-05T06:11:19.410Z,992.63
2023-03-05T06:12:19.949Z,992.62
2023-03-05T06:13:21.669Z,992.62
2023-03-05T06:14:23.384Z,992.61
2023-03-05T06:15:25.126Z,992.6
2023-03-05T06:16:26.916Z,992.6
2023-03-05T06:17:30.673Z,992.61
2023-03-05T06:18:30.324Z,992.61
2023-03-05T06:19:32.044Z,992.53
2023-03-05T06:20:33.783Z,992.58
2023-03-05T06:21:35.528Z,992.61
2023-03-05T06:22:37.265Z,992.63
2023-03-05T06:23:38.991Z,992.65
2023-03-05T06:24:40.726Z,992.64
2023-03-05T06:25:42.458Z,992.62
2023-03-05T06:26:44.229Z,992.63
2023-03-05T06:27:45.924Z,992.62
2023-03-05T06:28:47.663Z,992.64
2023-03-05T06:29:49.449Z,992.62
2023-03-05T06:30:51.139Z,992.62
2023-03-05T06:31:52.878Z,992.66
2023-03-05T06:32:54.613Z,992.59
2023-03-05T06:33:56.333Z,992.55
2023-03-05T06:34:58.063Z,992.55
2023-03-05T06:35:59.859Z,992.56
2023-03-05T06:37:01.543Z,992.58
2023-03-05T06:38:03.263Z,992.62
2023-03-05T06:39:05.058Z,992.55
2023-03-05T06:40:06.956Z,992.54
2023-03-05T06:41:09.478Z,992.56
2023-03-05T06:42:10.210Z,992.53
2023-03-05T06:43:11.936Z,992.6
2023-03-05T06:44:13.669Z,992.52
2023-03-05T06:45:15.385Z,992.51
2023-03-05T06:46:17.175Z,992.58
2023-03-05T06:47:18.937Z,992.57
2023-03-05T06:48:20.593Z,992.59
2023-03-05T06:49:22.319Z,992.6
2023-03-05T06:50:24.048Z,992.61
2023-03-05T06:51:25.828Z,992.62
2023-03-05T06:52:27.517Z,992.62
2023-03-05T06:53:29.288Z,992.64
2023-03-05T06:54:30.992Z,992.67
2023-03-05T06:55:32.736Z,992.63
2023-03-05T06:56:35.511Z,992.63
2023-03-05T06:57:36.222Z,992.68
2023-03-05T06:58:38.022Z,992.65
2023-03-05T06:59:39.699Z,992.6
2023-03-05T07:00:41.423Z,992.64
2023-03-05T07:01:43.184Z,992.6
2023-03-05T07:02:44.953Z,992.68
2023-03-05T07:03:46.653Z,992.67
2023-03-05T07:04:48.372Z,992.67
2023-03-05T07:05:50.135Z,992.66
2023-03-05T07:06:51.826Z,992.61
2023-03-05T07:07:53.552Z,992.58
2023-03-05T07:08:55.337Z,992.6
2023-03-05T07:09:57.073Z,992.64
2023-03-05T07:10:58.807Z,992.65
2023-03-05T07:12:00.484Z,992.59
2023-03-05T07:13:02.276Z,992.59
2023-03-05T07:14:03.961Z,992.59
2023-03-05T07:15:05.743Z,992.62
2023-03-05T07:16:07.524Z,992.57
2023-03-05T07:17:09.160Z,992.6
2023-03-05T07:18:10.887Z,992.54
2023-03-05T07:19:12.621Z,992.58
2023-03-05T07:20:14.445Z,992.61
2023-03-05T07:21:16.154Z,992.63
2023-03-05T07:22:17.849Z,992.63
2023-03-05T07:23:19.587Z,992.6
2023-03-05T07:24:21.320Z,992.65
2023-03-05T07:25:23.099Z,992.56
2023-03-05T07:26:25.801Z,992.62
2023-03-05T07:27:26.501Z,992.58
2023-03-05T07:28:28.267Z,992.62
2023-03-05T07:29:29.999Z,992.56
2023-03-05T07:30:31.679Z,992.52
2023-03-05T07:31:33.436Z,992.54
2023-03-05T07:32:35.215Z,992.5
2023-03-05T07:33:36.883Z,992.56
2023-03-05T07:34:38.685Z,992.54
2023-03-05T07:35:40.440Z,992.53
2023-03-05T07:36:42.083Z,992.51
2023-03-05T07:37:43.846Z,992.51
2023-03-05T07:38:45.596Z,992.49
2023-03-05T07:39:47.450Z,992.47
2023-03-05T07:40:49.037Z,992.46
2023-03-05T07:41:50.779Z,992.47
2023-03-05T07:42:52.487Z,992.37
2023-03-05T07:43:54.277Z,992.46
2023-03-05T07:44:55.990Z,992.43
2023-03-05T07:45:57.734Z,992.44
2023-03-05T07:46:59.444Z,992.45
2023-03-05T07:48:01.276Z,992.44
2023-03-05T07:49:02.900Z,992.38
2023-03-05T07:50:04.642Z,992.49
2023-03-05T07:51:06.413Z,992.37
2023-03-05T07:52:08.162Z,992.44
2023-03-05T07:53:09.853Z,992.45
2023-03-05T07:54:11.613Z,992.41
2023-03-05T07:55:13.336Z,992.43
2023-03-05T07:56:15.043Z,992.39
2023-03-05T07:57:16.810Z,992.39
2023-03-05T07:58:18.512Z,992.38
2023-03-05T07:59:20.250Z,992.36
2023-03-05T08:00:21.980Z,992.38
2023-03-05T08:01:23.710Z,992.36
2023-03-05T08:02:25.526Z,992.42
2023-03-05T08:03:27.209Z,992.34
2023-03-05T08:04:28.986Z,992.29
2023-03-05T08:05:30.653Z,992.37
2023-03-05T08:06:32.374Z,992.39
2023-03-05T08:07:34.151Z,992.34
2023-03-05T08:08:35.853Z,992.32
2023-03-05T08:09:37.567Z,992.36
2023-03-05T08:10:39.325Z,992.39
2023-03-05T08:11:41.200Z,992.36
2023-03-05T08:12:42.801Z,992.4
2023-03-05T08:13:44.500Z,992.35
2023-03-05T08:14:46.246Z,992.37
2023-03-05T08:15:48.100Z,992.39
2023-03-05T08:16:49.717Z,992.35
2023-03-05T08:17:51.445Z,992.33
2023-03-05T08:18:53.174Z,992.37
2023-03-05T08:19:54.963Z,992.36
2023-03-05T08:20:56.672Z,992.3
2023-03-05T08:21:58.413Z,992.3
2023-03-05T08:23:00.121Z,992.33
2023-03-05T08:24:01.847Z,992.28
2023-03-05T08:25:03.609Z,992.26
2023-03-05T08:26:05.310Z,992.22
2023-03-05T08:27:07.074Z,992.29
2023-03-05T08:28:08.825Z,992.26
2023-03-05T08:29:10.605Z,992.25
2023-03-05T08:30:12.245Z,992.22
2023-03-05T08:31:14.087Z,992.16
2023-03-05T08:32:15.760Z,992.14
2023-03-05T08:33:17.513Z,992.17
2023-03-05T08:34:19.200Z,992.16
2023-03-05T08:35:21.056Z,992.22
2023-03-05T08:36:22.671Z,992.18
2023-03-05T08:37:24.427Z,992.2
2023-03-05T08:38:26.119Z,992.14
2023-03-05T08:39:27.910Z,992.1
2023-03-05T08:40:29.640Z,992.12
2023-03-05T08:41:31.382Z,992.16
2023-03-05T08:42:33.089Z,992.12
2023-03-05T08:43:34.790Z,992.11
2023-03-05T08:44:36.547Z,992.04
2023-03-05T08:45:38.291Z,992.08
2023-03-05T08:46:40.231Z,992.09
2023-03-05T08:47:41.772Z,992.1
2023-03-05T08:48:43.449Z,992.07
2023-03-05T08:49:45.198Z,992.06
2023-03-05T08:50:46.922Z,992.08
2023-03-05T08:51:48.660Z,992.04
2023-03-05T08:52:50.430Z,992.05
2023-03-05T08:53:52.359Z,992.04
2023-03-05T08:54:53.895Z,992.06
2023-03-05T08:55:55.607Z,992.08
2023-03-05T08:56:57.329Z,992.06
2023-03-05T08:57:59.082Z,992.04
2023-03-05T08:59:00.829Z,992.01
2023-03-05T09:00:02.544Z,992.06
2023-03-05T09:01:04.365Z,992.03
2023-03-05T09:02:06.124Z,992.1
2023-03-05T09:03:07.985Z,992.07
2023-03-05T09:04:09.517Z,992.02
2023-03-05T09:05:11.205Z,992.05
2023-03-05T09:06:12.970Z,992.05
2023-03-05T09:07:14.689Z,992.05
2023-03-05T09:08:16.408Z,992.07
2023-03-05T09:09:18.372Z,992.05
2023-03-05T09:10:19.882Z,992.03
2023-03-05T09:11:21.659Z,992.02
2023-03-05T09:12:23.359Z,992.01
2023-03-05T09:13:25.124Z,992.02
2023-03-05T09:14:26.876Z,992.03
2023-03-05T09:15:28.542Z,992.05
2023-03-05T09:16:30.350Z,991.99
2023-03-05T09:17:32.113Z,992.03
2023-03-05T09:18:33.742Z,991.99
2023-03-05T09:19:35.532Z,992.03
2023-03-05T09:20:37.224Z,992.02
2023-03-05T09:21:38.944Z,992.01
2023-03-05T09:22:40.718Z,991.98
2023-03-05T09:23:42.503Z,992
2023-03-05T09:24:44.190Z,991.97
2023-03-05T09:25:45.913Z,991.97
2023-03-05T09:26:47.643Z,991.97
2023-03-05T09:27:49.401Z,991.97
2023-03-05T09:28:51.080Z,991.93
2023-03-05T09:29:52.868Z,991.89
2023-03-05T09:30:54.583Z,991.92
2023-03-05T09:31:56.874Z,991.87
2023-03-05T09:32:58.019Z,991.9
2023-03-05T09:33:59.777Z,991.88
2023-03-05T09:35:01.523Z,991.88
2023-03-05T09:36:03.345Z,991.84
2023-03-05T09:37:04.984Z,991.89
2023-03-05T09:38:06.674Z,991.82
2023-03-05T09:39:08.484Z,991.88
2023-03-05T09:40:10.200Z,991.87
2023-03-05T09:41:11.905Z,991.83
2023-03-05T09:42:13.663Z,991.83
2023-03-05T09:43:15.343Z,991.86
2023-03-05T09:44:17.134Z,991.84
2023-03-05T09:45:18.875Z,991.83
2023-03-05T09:46:20.579Z,991.82
2023-03-05T09:47:22.286Z,991.87
2023-03-05T09:48:24.049Z,991.82
2023-03-05T09:49:25.755Z,991.81
2023-03-05T09:50:27.485Z,991.81
2023-03-05T09:51:29.226Z,991.8
2023-03-05T09:52:30.970Z,991.81
2023-03-05T09:53:32.705Z,991.84
2023-03-05T09:54:34.412Z,991.77
2023-03-05T09:55:36.163Z,991.81
2023-03-05T09:56:37.899Z,991.79
2023-03-05T09:57:39.626Z,991.78
2023-03-05T09:58:41.409Z,991.74
2023-03-05T09:59:43.117Z,991.75
2023-03-05T10:00:45.109Z,991.72
2023-03-05T10:01:46.586Z,991.74
2023-03-05T10:02:48.449Z,991.76
2023-03-05T10:03:50.120Z,991.74
2023-03-05T10:04:51.786Z,991.74
2023-03-05T10:05:53.534Z,991.73
2023-03-05T10:06:55.270Z,991.7
2023-03-05T10:07:56.973Z,991.71
2023-03-05T10:08:58.711Z,991.72
2023-03-05T10:10:00.493Z,991.62
2023-03-05T10:11:02.128Z,991.65
2023-03-05T10:12:03.872Z,991.69
2023-03-05T10:13:05.614Z,991.69
2023-03-05T10:14:07.334Z,991.67
2023-03-05T10:15:10.117Z,991.64
2023-03-05T10:16:10.930Z,991.63
2023-03-05T10:17:12.543Z,991.6
2023-03-05T10:18:14.251Z,991.64
2023-03-05T10:19:16.052Z,991.61
2023-03-05T10:20:17.738Z,991.57
2023-03-05T10:21:19.463Z,991.52
2023-03-05T10:22:21.230Z,991.54
2023-03-05T10:23:22.932Z,991.55
2023-03-05T10:24:24.681Z,991.53
2023-03-05T10:25:26.391Z,991.53
2023-03-05T10:26:28.156Z,991.53
2023-03-05T10:27:29.948Z,991.49
2023-03-05T10:28:31.604Z,991.51
2023-03-05T10:29:33.381Z,991.41
2023-03-05T10:30:35.077Z,991.46
2023-03-05T10:31:36.863Z,991.47
2023-03-05T10:32:38.546Z,991.46
2023-03-05T10:33:40.288Z,991.44
2023-03-05T10:34:42.011Z,991.45
2023-03-05T10:35:43.768Z,991.37
2023-03-05T10:36:45.482Z,991.43
2023-03-05T10:37:47.228Z,991.35
2023-03-05T10:38:48.937Z,991.42
2023-03-05T10:39:50.670Z,991.42
2023-03-05T10:40:52.387Z,991.44
2023-03-05T10:41:54.133Z,991.41
2023-03-05T10:42:55.863Z,991.41
2023-03-05T10:43:57.607Z,991.45
2023-03-05T10:44:59.337Z,991.42
2023-03-05T10:46:01.331Z,991.42
2023-03-05T10:47:02.824Z,991.39
2023-03-05T10:48:04.551Z,991.4
2023-03-05T10:49:06.257Z,991.4
2023-03-05T10:50:08.000Z,991.41
2023-03-05T10:51:09.730Z,991.42
2023-03-05T10:52:11.467Z,991.35
2023-03-05T10:53:13.202Z,991.4
2023-03-05T10:54:14.945Z,991.42
2023-03-05T10:55:16.825Z,991.38
2023-03-05T10:56:18.401Z,991.34
2023-03-05T10:57:20.149Z,991.36
2023-03-05T10:58:24.572Z,991.41
2023-03-05T10:59:23.598Z,991.43
2023-03-05T11:00:25.448Z,991.38
2023-03-05T11:01:27.168Z,991.32
2023-03-05T11:02:28.974Z,991.38
2023-03-05T11:03:30.556Z,991.36
2023-03-05T11:04:32.302Z,991.34
2023-03-05T11:05:34.025Z,991.32
2023-03-05T11:06:35.743Z,991.35
2023-03-05T11:07:37.502Z,991.34
2023-03-05T11:08:39.206Z,991.31
2023-03-05T11:09:40.963Z,991.29
2023-03-05T11:10:42.677Z,991.32
2023-03-05T11:11:44.422Z,991.28
2023-03-05T11:12:46.153Z,991.21
2023-03-05T11:13:47.871Z,991.27
2023-03-05T11:14:49.684Z,991.23
2023-03-05T11:15:51.405Z,991.28
2023-03-05T11:16:53.307Z,991.19
2023-03-05T11:17:54.807Z,991.26
2023-03-05T11:18:56.533Z,991.19
2023-03-05T11:19:58.289Z,991.24
2023-03-05T11:21:00.020Z,991.16
2023-03-05T11:22:01.743Z,991.19
2023-03-05T11:23:03.474Z,991.1
2023-03-05T11:24:05.318Z,991.19
2023-03-05T11:25:07.151Z,991.17
2023-03-05T11:26:08.681Z,991.12
2023-03-05T11:27:10.397Z,991.16
2023-03-05T11:28:13.804Z,991.11
2023-03-05T11:29:13.883Z,991.06
2023-03-05T11:30:15.609Z,991.08
2023-03-05T11:31:17.381Z,991.1
2023-03-05T11:32:19.361Z,991.09
2023-03-05T11:33:20.811Z,991.04
2023-03-05T11:34:22.532Z,991.04
2023-03-05T11:35:24.323Z,991.04
2023-03-05T11:36:26.011Z,991.04
2023-03-05T11:37:27.748Z,991
2023-03-05T11:38:29.481Z,990.96
2023-03-05T11:39:31.213Z,991.01
2023-03-05T11:40:32.956Z,990.97
2023-03-05T11:41:34.681Z,990.87
2023-03-05T11:42:36.450Z,990.91
2023-03-05T11:43:38.147Z,990.88
2023-03-05T11:44:39.914Z,990.9
2023-03-05T11:45:41.626Z,990.83
2023-03-05T11:46:43.346Z,990.83
2023-03-05T11:47:45.122Z,990.78
2023-03-05T11:48:46.825Z,990.78
2023-03-05T11:49:48.589Z,990.79
2023-03-05T11:51:52.023Z,990.69
2023-03-05T11:52:52.551Z,990.73
2023-03-05T11:52:53.833Z,990.68
2023-03-05T11:53:55.530Z,990.61
2023-03-05T11:54:57.226Z,990.67
2023-03-05T11:55:58.946Z,990.66
2023-03-05T11:57:00.698Z,990.67
2023-03-05T11:58:02.431Z,990.65
2023-03-05T11:59:04.158Z,990.65
2023-03-05T12:00:05.922Z,990.6
2023-03-05T12:01:07.647Z,990.62
2023-03-05T12:02:09.387Z,990.57
2023-03-05T12:03:11.211Z,990.57
2023-03-05T12:04:12.891Z,990.56
2023-03-05T12:05:14.616Z,990.54
2023-03-05T12:06:16.338Z,990.53
2023-03-05T12:07:18.021Z,990.52
2023-03-05T12:08:19.813Z,990.52
2023-03-05T12:09:21.499Z,990.42
2023-03-05T12:10:23.271Z,990.41
2023-03-05T12:11:24.991Z,990.4
2023-03-05T12:12:26.716Z,990.43
2023-03-05T12:13:28.443Z,990.39
2023-03-05T12:14:30.189Z,990.38
2023-03-05T12:15:31.901Z,990.4
2023-03-05T12:16:33.686Z,990.36
2023-03-05T12:17:35.394Z,990.36
2023-03-05T12:18:37.110Z,990.36
2023-03-05T12:19:38.836Z,990.28
2023-03-05T12:20:40.589Z,990.32
2023-03-05T12:21:42.320Z,990.33
2023-03-05T12:22:44.560Z,990.27
2023-03-05T12:23:45.767Z,990.25
2023-03-05T12:24:47.507Z,990.26
2023-03-05T12:25:49.244Z,990.19
2023-03-05T12:26:50.965Z,990.23
2023-03-05T12:27:52.734Z,990.25
2023-03-05T12:28:54.455Z,990.19
2023-03-05T12:29:56.174Z,990.23
2023-03-05T12:30:57.913Z,990.16
2023-03-05T12:31:59.668Z,990.16
2023-03-05T12:33:01.388Z,990.15
2023-03-05T12:34:03.548Z,990.08
2023-03-05T12:35:04.848Z,990.06
2023-03-05T12:36:06.607Z,990.04
2023-03-05T12:37:08.312Z,990.02
2023-03-05T12:38:25.908Z,990.03
2023-03-05T12:39:11.770Z,989.98
2023-03-05T12:40:13.514Z,989.96
2023-03-05T12:41:15.250Z,989.99
2023-03-05T12:42:18.160Z,989.93
2023-03-05T12:43:18.707Z,989.91
2023-03-05T12:44:20.438Z,989.9
2023-03-05T12:45:22.176Z,989.88
2023-03-05T12:46:24.014Z,989.83
2023-03-05T12:47:25.811Z,989.86
2023-03-05T12:48:27.477Z,989.85
2023-03-05T12:49:29.100Z,989.84
2023-03-05T12:50:30.869Z,989.79
2023-03-05T12:51:32.593Z,989.8
2023-03-05T12:52:34.483Z,989.72
2023-03-05T12:53:36.064Z,989.72